PROFILE

 METAR AND TAF INFORMATION
ADDS - METARS form results

(1500 UTC 22 January 2019)
http://aviationweather.gov/metar/data/
 
UAAA 221430Z 26003MPS 2300 -SN BR BKN004 OVC018 M01/M02 Q1021 R23R/3///50 R23L/3///45 NOSIG RMK QBB140
TAF UAAA 221100Z 2212/2312 22003MPS 1200 -SN BR BKN011 OVC100 TXM00/2307Z TNM06/2301Z TEMPO 2212/2218 0200 FZFG VV002 TEMPO 2218/2306 0200 FZFG VV001 BECMG 2306/2307 04003MPS 3100 BR TEMPO 2306/2312 1600 BKN005 

 AIRPORT MAP

 RUNWAY INFORMATION
Runway 05 Runway length 14427 ft Runway width 147 ft
Runway elevation 2224 ft Runway displaced threshold 0 ft Runway heading 56
Runway 23 Runway length 14427 ft Runway width 147 ft
Runway elevation 2234 ft Runway displaced threshold 0 ft Runway heading 236

 AIRPORT FREQUENCIES
Type APP Name APP Frequency 131.6 MHZ
Type ATIS Name ATIS Frequency 129.8 MHZ
Type GCA Name RADAR Frequency 120.8 MHZ
Type GND Name GND Frequency 121.7 MHZ
Type TWR Name TWR Frequency 119.4 MHZ

 AIRPORT NEAR NAVIGATION AIDS
Type NDB Name Almaty Frequency 443 KHZ
Type VOR-DME Name Almaty Frequency 112300 KHZ
Type NDB Name Almaty Frequency 415 KHZ